createdAt,value
2022-11-15T00:02:48.598Z,61.74
2022-11-15T00:08:10.340Z,62.09
2022-11-15T00:13:32.773Z,61.88
2022-11-15T00:18:56.199Z,61.77
2022-11-15T00:24:17.469Z,62.03
2022-11-15T00:29:39.576Z,62.17
2022-11-15T00:35:02.122Z,62.43
2022-11-15T00:40:23.342Z,62.74
2022-11-15T00:45:44.821Z,62.76
2022-11-15T00:51:07.698Z,62.93
2022-11-15T00:56:29.200Z,62.81
2022-11-15T01:01:50.627Z,62.70
2022-11-15T01:07:13.584Z,62.70
2022-11-15T01:12:35.024Z,62.59
2022-11-15T01:17:56.858Z,62.60
2022-11-15T01:23:19.688Z,62.70
2022-11-15T01:28:43.238Z,62.51
2022-11-15T01:34:04.510Z,62.44
2022-11-15T01:39:28.578Z,62.47
2022-11-15T01:50:14.204Z,62.35
2022-11-15T01:55:37.170Z,62.76
2022-11-15T02:00:58.471Z,62.87
2022-11-15T02:06:20.838Z,63.00
2022-11-15T02:11:44.543Z,62.92
2022-11-15T02:17:19.074Z,62.95
2022-11-15T02:22:53.674Z,63.18
2022-11-15T02:28:35.911Z,63.35
2022-11-15T02:34:08.286Z,63.78
2022-11-15T02:39:37.676Z,64.01
2022-11-15T02:45:01.967Z,64.44
2022-11-15T02:50:28.071Z,64.30
2022-11-15T02:55:52.205Z,64.59
2022-11-15T03:01:26.936Z,64.91
2022-11-15T03:06:55.361Z,65.09
2022-11-15T03:12:27.586Z,65.29
2022-11-15T03:17:55.856Z,65.40
2022-11-15T03:23:19.731Z,65.76
2022-11-15T03:28:46.450Z,66.12
2022-11-15T03:34:12.409Z,66.11
2022-11-15T03:39:35.734Z,66.26
2022-11-15T03:45:05.527Z,66.44
2022-11-15T03:50:27.928Z,66.74
2022-11-15T03:55:50.671Z,67.05
2022-11-15T04:01:11.933Z,67.21
2022-11-15T04:06:33.274Z,67.36
2022-11-15T04:11:56.265Z,67.57
2022-11-15T04:17:17.839Z,67.60
2022-11-15T04:22:56.775Z,67.78
2022-11-15T04:28:19.997Z,68.21
2022-11-15T04:33:41.673Z,68.14
2022-11-15T04:39:03.155Z,67.62
2022-11-15T04:44:26.138Z,67.59
2022-11-15T04:49:47.620Z,67.68
2022-11-15T04:55:09.440Z,67.64
2022-11-15T05:00:32.531Z,67.79
2022-11-15T05:05:54.084Z,67.58
2022-11-15T05:11:15.221Z,67.60
2022-11-15T05:16:38.810Z,67.76
2022-11-15T05:21:59.953Z,68.00
2022-11-15T05:27:21.545Z,67.98
2022-11-15T05:32:44.597Z,68.05
2022-11-15T05:38:06.204Z,68.15
2022-11-15T05:43:28.044Z,68.08
2022-11-15T05:48:54.626Z,68.30
2022-11-15T05:54:17.211Z,68.57
2022-11-15T05:59:39.141Z,68.51
2022-11-15T06:05:01.739Z,68.72
2022-11-15T06:10:23.601Z,68.70
2022-11-15T06:15:44.829Z,68.71
2022-11-15T06:21:07.813Z,68.69
2022-11-15T06:26:29.422Z,68.84
2022-11-15T06:31:51.090Z,68.90
2022-11-15T06:37:14.143Z,68.82
2022-11-15T06:42:35.439Z,69.04
2022-11-15T06:47:57.039Z,69.04
2022-11-15T06:53:20.105Z,69.02
2022-11-15T06:58:41.702Z,69.03
2022-11-15T07:04:03.178Z,68.93
2022-11-15T07:09:27.086Z,69.02
2022-11-15T07:14:48.410Z,68.98
2022-11-15T07:20:10.623Z,69.06
2022-11-15T07:25:33.311Z,69.00
2022-11-15T07:30:54.693Z,68.35
2022-11-15T07:36:16.334Z,67.72
2022-11-15T07:41:39.586Z,67.74
2022-11-15T07:47:01.027Z,67.52
2022-11-15T07:52:22.673Z,67.25
2022-11-15T07:57:45.424Z,66.84
2022-11-15T08:03:08.899Z,66.84
2022-11-15T08:08:30.256Z,66.78
2022-11-15T08:13:52.947Z,66.62
2022-11-15T08:19:14.568Z,66.50
2022-11-15T08:24:35.990Z,66.61
2022-11-15T08:29:59.686Z,66.48
2022-11-15T08:35:26.267Z,66.60
2022-11-15T08:40:50.714Z,66.39
2022-11-15T08:46:15.372Z,66.37
2022-11-15T08:51:36.698Z,66.44
2022-11-15T08:56:58.184Z,66.36
2022-11-15T09:02:21.018Z,66.28
2022-11-15T09:07:42.669Z,66.26
2022-11-15T09:13:04.428Z,66.30
2022-11-15T09:18:26.974Z,60.61
2022-11-15T09:23:48.585Z,56.78
2022-11-15T09:29:09.885Z,55.60
2022-11-15T09:34:32.992Z,55.19
2022-11-15T09:39:54.340Z,56.43
2022-11-15T09:45:22.416Z,56.00
2022-11-15T09:50:49.997Z,55.69
2022-11-15T09:56:01.149Z,55.18
2022-11-15T10:01:10.002Z,55.31
2022-11-15T10:06:23.824Z,56.17
2022-11-15T10:11:37.447Z,56.14
2022-11-15T10:17:19.662Z,57.04
2022-11-15T10:22:39.512Z,57.44
2022-11-15T10:27:44.020Z,57.91
2022-11-15T10:32:50.284Z,58.31
2022-11-15T10:38:07.193Z,58.74
2022-11-15T10:43:18.351Z,58.81
2022-11-15T10:48:26.060Z,59.01
2022-11-15T10:53:33.299Z,58.96
2022-11-15T10:58:39.281Z,59.12
2022-11-15T11:03:43.653Z,59.02
2022-11-15T11:08:59.659Z,58.92
2022-11-15T11:14:14.272Z,59.38
2022-11-15T11:19:48.817Z,59.49
2022-11-15T11:25:05.368Z,60.01
2022-11-15T11:30:13.425Z,60.16
2022-11-15T11:35:22.563Z,60.18
2022-11-15T11:40:35.823Z,60.13
2022-11-15T11:45:51.803Z,61.19
2022-11-15T11:51:00.173Z,62.39
2022-11-15T11:56:13.116Z,62.92
2022-11-15T12:01:19.847Z,63.19
2022-11-15T12:06:29.699Z,63.50
2022-11-15T12:11:40.918Z,64.02
2022-11-15T12:16:44.862Z,64.25
2022-11-15T12:21:55.147Z,64.63
2022-11-15T12:27:04.661Z,64.94
2022-11-15T12:32:20.873Z,65.39
2022-11-15T12:37:49.829Z,65.23
2022-11-15T12:43:37.706Z,62.77
2022-11-15T12:48:51.956Z,63.11
2022-11-15T12:53:54.687Z,62.87
2022-11-15T12:58:59.200Z,62.01
2022-11-15T13:04:27.092Z,61.63
2022-11-15T13:10:03.586Z,61.03
2022-11-15T13:15:50.923Z,61.69
2022-11-15T13:21:00.965Z,60.33
2022-11-15T13:26:17.438Z,60.78
2022-11-15T13:31:26.824Z,61.03
2022-11-15T13:36:34.195Z,60.65
2022-11-15T13:41:38.558Z,60.38
2022-11-15T13:46:41.372Z,60.59
2022-11-15T13:51:49.446Z,60.48
2022-11-15T13:56:57.116Z,60.24
2022-11-15T14:02:02.924Z,60.04
2022-11-15T14:07:07.246Z,60.00
2022-11-15T14:12:30.159Z,59.97
2022-11-15T14:17:39.056Z,60.33
2022-11-15T14:22:53.944Z,60.49
2022-11-15T14:28:34.457Z,61.60
2022-11-15T14:33:39.943Z,62.54
2022-11-15T14:38:44.781Z,62.55
2022-11-15T14:43:47.855Z,62.38
2022-11-15T14:48:51.118Z,62.53
2022-11-15T14:53:56.285Z,62.96
2022-11-15T14:58:59.473Z,63.09
2022-11-15T15:04:02.254Z,63.28
2022-11-15T15:09:06.738Z,63.55
2022-11-15T15:14:10.522Z,63.74
2022-11-15T15:19:13.246Z,64.29
2022-11-15T15:24:17.684Z,64.69
2022-11-15T15:29:20.418Z,65.11
2022-11-15T15:34:23.487Z,65.32
2022-11-15T15:39:27.719Z,65.63
2022-11-15T15:44:30.466Z,65.79
2022-11-15T15:49:33.472Z,66.06
2022-11-15T15:54:38.153Z,66.12
2022-11-15T15:59:41.119Z,66.22
2022-11-15T16:04:44.032Z,66.41
2022-11-15T16:10:03.381Z,66.52
2022-11-15T16:15:06.849Z,66.41
2022-11-15T16:20:24.431Z,66.07
2022-11-15T16:25:28.624Z,65.76
2022-11-15T16:30:31.669Z,65.45
2022-11-15T16:35:34.704Z,65.19
2022-11-15T16:40:39.138Z,65.22
2022-11-15T16:45:41.905Z,65.05
2022-11-15T16:50:46.298Z,64.92
2022-11-15T16:55:50.698Z,64.62
2022-11-15T17:00:54.555Z,64.39
2022-11-15T17:05:59.332Z,64.30
2022-11-15T17:11:06.928Z,64.33
2022-11-15T17:16:11.754Z,64.01
2022-11-15T17:21:16.447Z,63.95
2022-11-15T17:26:30.436Z,63.86
2022-11-15T17:31:35.875Z,63.73
2022-11-15T17:36:38.722Z,63.60
2022-11-15T17:41:42.903Z,63.59
2022-11-15T17:46:45.960Z,63.36
2022-11-15T17:51:50.168Z,63.31
2022-11-15T17:56:54.505Z,63.30
2022-11-15T18:01:57.265Z,63.34
2022-11-15T18:07:00.039Z,63.47
2022-11-15T18:12:04.364Z,63.36
2022-11-15T18:17:07.395Z,63.31
2022-11-15T18:22:10.379Z,63.06
2022-11-15T18:27:14.606Z,62.96
2022-11-15T18:32:17.747Z,62.90
2022-11-15T18:37:20.490Z,62.80
2022-11-15T18:42:24.673Z,62.57
2022-11-15T18:47:28.074Z,62.42
2022-11-15T18:52:30.795Z,62.51
2022-11-15T18:57:35.043Z,62.37
2022-11-15T19:02:37.798Z,62.36
2022-11-15T19:07:40.641Z,62.38
2022-11-15T19:12:47.092Z,62.26
2022-11-15T19:17:49.795Z,62.28
2022-11-15T19:22:53.783Z,62.12
2022-11-15T19:27:57.970Z,62.06
2022-11-15T19:33:00.843Z,62.05
2022-11-15T19:38:03.571Z,61.91
2022-11-15T19:43:07.649Z,61.83
2022-11-15T19:48:10.465Z,61.83
2022-11-15T19:53:13.274Z,61.75
2022-11-15T19:58:17.393Z,61.61
2022-11-15T20:03:20.110Z,61.47
2022-11-15T20:08:22.849Z,61.49
2022-11-15T20:13:27.190Z,61.52
2022-11-15T20:18:31.057Z,61.28
2022-11-15T20:23:34.211Z,61.29
2022-11-15T20:28:39.741Z,61.28
2022-11-15T20:33:42.483Z,61.20
2022-11-15T20:38:45.991Z,61.21
2022-11-15T20:43:50.125Z,61.14
2022-11-15T20:48:52.900Z,61.06
2022-11-15T20:53:55.746Z,61.05
2022-11-15T20:58:59.836Z,60.91
2022-11-15T21:04:02.648Z,60.90
2022-11-15T21:09:23.254Z,60.87
2022-11-15T21:14:27.439Z,60.80
2022-11-15T21:19:35.510Z,60.89
2022-11-15T21:24:39.618Z,60.93
2022-11-15T21:29:45.659Z,61.02
2022-11-15T21:34:48.478Z,60.94
2022-11-15T21:39:51.247Z,61.02
2022-11-15T21:44:55.458Z,61.02
2022-11-15T21:49:58.214Z,61.08
2022-11-15T21:55:01.074Z,61.09
2022-11-15T22:00:23.576Z,60.90
2022-11-15T22:05:26.368Z,61.02
2022-11-15T22:10:29.105Z,61.16
2022-11-15T22:15:33.196Z,61.04
2022-11-15T22:20:44.840Z,61.15
2022-11-15T22:25:48.298Z,61.30
2022-11-15T22:30:54.050Z,61.55
2022-11-15T22:35:57.734Z,61.61
2022-11-15T22:41:02.714Z,61.67
2022-11-15T22:46:07.251Z,61.63
2022-11-15T22:51:10.737Z,61.63
2022-11-15T22:56:19.042Z,61.65
2022-11-15T23:01:24.604Z,61.71
2022-11-15T23:06:27.705Z,61.53
2022-11-15T23:11:48.101Z,61.66
2022-11-15T23:16:52.485Z,61.64
2022-11-15T23:22:12.844Z,61.69
2022-11-15T23:27:20.616Z,61.68
2022-11-15T23:32:42.865Z,61.74
2022-11-15T23:37:45.997Z,61.82
2022-11-15T23:42:49.906Z,61.84
2022-11-15T23:47:59.985Z,61.79
2022-11-15T23:53:04.723Z,62.00
2022-11-15T23:58:08.370Z,61.88
